Time;durP1;ratioP1;P1;durP2;ratioP2;P2;SDS_P1;SDS_P2;PMS_P1;PMS_P2;Temp;Humidity;BMP_temperature;BMP_pressure;BME280_temperature;BME280_humidity;BME280_pressure;Samples;Min_cycle;Max_cycle;Signal;HPM_P1;HPM_P2
2023/03/18 00:00:33;;;;;;;0.00;0.00;;;12.60;99.90;;;;;;6309619;22;20035;-91
2023/03/18 00:02:59;;;;;;;0.00;0.00;;;;;;;;;;6309470;22;20019;-92
2023/03/18 00:05:25;;;;;;;0.00;0.00;;;;;;;;;;6309890;22;19999;-92
2023/03/18 00:07:50;;;;;;;0.00;0.00;;;12.70;99.90;;;;;;6310183;22;20504;-91
2023/03/18 00:10:17;;;;;;;0.00;0.00;;;;;;;;;;6309761;22;19995;-92
2023/03/18 00:12:43;;;;;;;0.00;0.00;;;;;;;;;;6310736;22;20014;-92
2023/03/18 00:15:11;;;;;;;0.10;0.10;;;12.50;99.90;;;;;;6311193;22;20002;-93
2023/03/18 00:17:39;;;;;;;0.00;0.00;;;;;;;;;;6310018;22;20056;-92
2023/03/18 00:20:05;;;;;;;0.00;0.00;;;;;;;;;;6310840;22;20496;-89
2023/03/18 00:22:36;;;;;;;0.00;0.00;;;12.50;99.90;;;;;;6310340;22;20020;-92
2023/03/18 00:30:06;;;;;;;0.00;0.00;;;;;;;;;;6273951;22;20403;-89
2023/03/18 00:32:33;;;;;;;0.00;0.00;;;;;;;;;;6274910;22;20000;-90
2023/03/18 00:35:00;;;;;;;0.00;0.00;;;12.30;99.90;;;;;;6264990;22;20004;-89
2023/03/18 00:37:29;;;;;;;0.00;0.00;;;12.20;99.90;;;;;;6246121;23;19996;-90
2023/03/18 00:40:03;;;;;;;0.00;0.00;;;12.10;99.90;;;;;;6218352;23;20494;-89
2023/03/18 00:42:35;;;;;;;0.00;0.00;;;12.10;99.90;;;;;;6246138;23;19993;-90
2023/03/18 00:45:03;;;;;;;0.00;0.00;;;12.10;99.90;;;;;;6245733;22;20000;-89
2023/03/18 00:47:29;;;;;;;0.00;0.00;;;12.00;99.90;;;;;;6218296;23;20066;-89
2023/03/18 00:49:54;;;;;;;0.05;0.05;;;12.00;99.90;;;;;;6218975;23;20016;-89
2023/03/18 00:52:21;;;;;;;0.00;0.00;;;12.00;99.90;;;;;;6218792;23;20102;-89
2023/03/18 00:54:46;;;;;;;0.00;0.00;;;11.90;99.90;;;;;;6217598;23;20008;-89
2023/03/18 00:57:12;;;;;;;0.00;0.00;;;12.00;99.90;;;;;;6218998;23;20094;-90
2023/03/18 00:59:37;;;;;;;0.00;0.00;;;11.90;99.90;;;;;;6218091;23;20000;-90
2023/03/18 01:02:03;;;;;;;0.00;0.00;;;11.90;99.90;;;;;;6219185;23;19996;-89
2023/03/18 01:04:28;;;;;;;0.00;0.00;;;11.80;99.90;;;;;;6219422;22;20353;-90
2023/03/18 01:06:54;;;;;;;0.00;0.00;;;;;;;;;;6217238;23;20051;-89
2023/03/18 01:09:20;;;;;;;0.00;0.00;;;11.80;99.90;;;;;;6216625;23;20004;-88
2023/03/18 01:11:45;;;;;;;0.00;0.00;;;11.40;99.90;;;;;;6217945;23;20298;-89
2023/03/18 01:14:11;;;;;;;0.00;0.00;;;11.60;99.90;;;;;;6219118;22;20448;-89
2023/03/18 01:16:37;;;;;;;0.10;0.10;;;;;;;;;;6218415;23;20000;-89
2023/03/18 01:19:03;;;;;;;0.00;0.00;;;;;;;;;;6220539;23;19996;-89
2023/03/18 01:21:28;;;;;;;0.00;0.00;;;11.60;99.90;;;;;;6219674;23;20012;-89
2023/03/18 01:23:54;;;;;;;0.10;0.10;;;;;;;;;;6219182;23;20035;-87
2023/03/18 01:26:21;;;;;;;0.00;0.00;;;;;;;;;;6245512;22;20012;-89
2023/03/18 01:28:46;;;;;;;0.10;0.10;;;11.50;99.90;;;;;;6219833;23;20016;-89
2023/03/18 01:31:12;;;;;;;0.00;0.00;;;11.30;99.90;;;;;;6218832;23;20538;-88
2023/03/18 01:33:39;;;;;;;0.00;0.00;;;11.30;99.90;;;;;;6218781;23;20019;-88
2023/03/18 01:36:04;;;;;;;0.03;0.03;;;11.30;99.90;;;;;;6215331;23;20444;-88
2023/03/18 01:38:31;;;;;;;0.10;0.10;;;11.30;99.90;;;;;;6217114;23;20010;-89
2023/03/18 01:40:59;;;;;;;0.03;0.03;;;11.20;99.90;;;;;;6243734;23;20092;-89
2023/03/18 01:43:30;;;;;;;0.00;0.00;;;11.20;99.90;;;;;;6216192;23;20000;-89
2023/03/18 01:45:58;;;;;;;0.03;0.03;;;11.20;99.90;;;;;;6216714;23;20004;-89
2023/03/18 01:48:28;;;;;;;0.00;0.00;;;11.10;99.90;;;;;;6217518;23;20436;-90
2023/03/18 01:50:58;;;;;;;0.00;0.00;;;11.10;99.90;;;;;;6215206;23;20062;-90
2023/03/18 01:53:27;;;;;;;0.00;0.00;;;11.10;99.90;;;;;;6215893;23;20004;-89
2023/03/18 01:55:53;;;;;;;0.00;0.00;;;11.20;99.90;;;;;;6213556;23;20035;-90
2023/03/18 01:58:24;;;;;;;0.00;0.00;;;11.20;99.90;;;;;;6217853;23;20000;-89
2023/03/18 02:01:13;;;;;;;0.10;0.10;;;11.10;99.90;;;;;;6215792;23;20012;-87
2023/03/18 02:03:41;;;;;;;0.03;0.03;;;11.20;99.90;;;;;;6218141;23;20083;-89
2023/03/18 02:06:07;;;;;;;0.10;0.10;;;;;;;;;;6217386;23;20054;-88
2023/03/18 02:08:33;;;;;;;0.00;0.00;;;11.10;99.90;;;;;;6243994;23;19996;-90
2023/03/18 02:10:59;;;;;;;0.05;0.05;;;;;;;;;;6217522;23;20340;-89
2023/03/18 02:13:26;;;;;;;0.00;0.00;;;;;;;;;;6216325;23;20015;-90
2023/03/18 02:15:57;;;;;;;0.00;0.00;;;11.10;99.90;;;;;;6215970;23;20096;-89
2023/03/18 02:18:39;;;;;;;0.10;0.10;;;11.10;99.90;;;;;;6214327;23;20055;-90
2023/03/18 02:21:23;;;;;;;0.00;0.00;;;11.10;99.90;;;;;;6213605;23;20448;-89
2023/03/18 02:23:54;;;;;;;0.00;0.00;;;11.20;99.90;;;;;;6214744;23;20035;-89
2023/03/18 02:26:49;;;;;;;0.00;0.00;;;11.10;99.90;;;;;;6244639;22;20004;-88
2023/03/18 02:29:18;;;;;;;0.00;0.00;;;11.00;99.90;;;;;;6216905;23;20020;-89
2023/03/18 02:31:45;;;;;;;0.10;0.10;;;11.00;99.90;;;;;;6217935;23;20027;-88
2023/03/18 02:34:12;;;;;;;0.00;0.00;;;11.10;99.90;;;;;;6218490;22;20004;-89
2023/03/18 02:36:37;;;;;;;0.00;0.00;;;11.00;99.90;;;;;;6217180;23;20004;-89
2023/03/18 02:39:04;;;;;;;0.00;0.00;;;11.10;99.90;;;;;;6217518;23;20083;-88
2023/03/18 02:41:33;;;;;;;0.10;0.10;;;11.10;99.90;;;;;;6244062;23;20143;-88
2023/03/18 02:43:59;;;;;;;0.00;0.00;;;11.00;99.90;;;;;;6217911;23;20348;-89
2023/03/18 02:46:35;;;;;;;0.00;0.00;;;11.00;99.90;;;;;;6213491;23;20330;-89
2023/03/18 02:49:03;;;;;;;0.00;0.00;;;11.00;99.90;;;;;;6246419;23;20015;-89
2023/03/18 02:51:29;;;;;;;0.10;0.10;;;11.00;99.90;;;;;;6217755;23;20057;-89
2023/03/18 02:54:00;;;;;;;0.00;0.00;;;10.90;99.90;;;;;;6246319;22;20008;-89
2023/03/18 02:56:26;;;;;;;0.00;0.00;;;10.90;99.90;;;;;;6245724;22;19992;-89
2023/03/18 02:58:51;;;;;;;0.10;0.10;;;11.00;99.90;;;;;;6218272;23;20012;-89
2023/03/18 03:01:18;;;;;;;0.00;0.00;;;11.10;99.90;;;;;;6216870;23;19996;-89
2023/03/18 03:03:44;;;;;;;0.10;0.10;;;11.00;99.90;;;;;;6245767;23;20004;-89
2023/03/18 03:06:10;;;;;;;0.10;0.10;;;;;;;;;;6217128;23;20016;-89
2023/03/18 03:08:36;;;;;;;0.00;0.00;;;;;;;;;;6218063;23;20483;-88
2023/03/18 03:11:02;;;;;;;0.00;0.00;;;11.00;99.90;;;;;;6245456;22;19996;-87
2023/03/18 03:13:28;;;;;;;0.00;0.00;;;12.50;99.90;;;;;;6244884;23;20053;-88
2023/03/18 03:15:54;;;;;;;0.00;0.00;;;12.50;99.90;;;;;;6244926;22;20019;-89
2023/03/18 03:18:20;;;;;;;0.00;0.00;;;11.20;99.90;;;;;;6220035;23;20326;-89
2023/03/18 03:20:46;;;;;;;0.00;0.00;;;11.20;99.90;;;;;;6220212;23;20010;-89
2023/03/18 03:23:14;;;;;;;0.00;0.00;;;11.20;99.90;;;;;;6247646;22;20488;-89
2023/03/18 03:25:40;;;;;;;0.05;0.05;;;11.20;99.90;;;;;;6247321;22;20010;-89
2023/03/18 03:28:07;;;;;;;0.00;0.00;;;11.20;99.90;;;;;;6219714;23;20011;-89
2023/03/18 03:30:34;;;;;;;0.00;0.00;;;11.20;99.90;;;;;;6219454;23;20004;-89
2023/03/18 03:33:01;;;;;;;0.00;0.00;;;11.30;99.90;;;;;;6219503;23;20008;-89
2023/03/18 03:35:27;;;;;;;0.00;0.00;;;11.20;99.90;;;;;;6219163;23;20004;-88
2023/03/18 03:37:52;;;;;;;0.00;0.00;;;11.20;99.90;;;;;;6247718;23;20010;-89
2023/03/18 03:40:19;;;;;;;0.00;0.00;;;11.20;99.90;;;;;;6247500;22;20425;-88
2023/03/18 03:42:45;;;;;;;0.05;0.05;;;;;;;;;;6247023;23;20387;-88
2023/03/18 03:45:12;;;;;;;0.00;0.00;;;11.30;99.90;;;;;;6219821;23;20048;-89
2023/03/18 03:47:39;;;;;;;0.00;0.00;;;11.20;99.90;;;;;;6220463;23;20043;-89
2023/03/18 03:50:05;;;;;;;0.10;0.10;;;11.30;99.90;;;;;;6247276;23;20000;-89
2023/03/18 03:52:32;;;;;;;0.00;0.00;;;;;;;;;;6247207;23;20008;-89
2023/03/18 03:54:59;;;;;;;0.00;0.00;;;11.30;99.90;;;;;;6220501;23;20035;-89
2023/03/18 03:57:25;;;;;;;0.03;0.03;;;11.30;99.90;;;;;;6220728;23;20004;-89
2023/03/18 03:59:51;;;;;;;0.10;0.10;;;11.30;99.90;;;;;;6247078;23;20004;-89
2023/03/18 04:02:17;;;;;;;0.00;0.00;;;11.40;99.90;;;;;;6219253;23;20511;-89
2023/03/18 04:04:44;;;;;;;0.00;0.00;;;11.30;99.90;;;;;;6220468;23;20087;-88
2023/03/18 04:07:10;;;;;;;0.08;0.08;;;11.40;99.90;;;;;;6218364;23;20039;-88
2023/03/18 04:09:36;;;;;;;0.00;0.00;;;11.30;99.90;;;;;;6220359;23;20008;-89
2023/03/18 04:12:02;;;;;;;0.03;0.03;;;11.30;99.90;;;;;;6220129;23;20038;-89
2023/03/18 04:14:28;;;;;;;0.00;0.00;;;11.30;99.90;;;;;;6220111;22;20015;-88
2023/03/18 04:16:56;;;;;;;0.00;0.00;;;11.30;99.90;;;;;;6219098;23;20011;-88
2023/03/18 04:19:23;;;;;;;0.00;0.00;;;11.30;99.90;;;;;;6220043;23;20031;-89
2023/03/18 04:21:48;;;;;;;0.00;0.00;;;11.30;99.90;;;;;;6245710;23;20050;-88
2023/03/18 04:24:14;;;;;;;0.00;0.00;;;11.20;99.90;;;;;;6220473;22;20008;-89
2023/03/18 04:26:40;;;;;;;0.00;0.00;;;11.20;99.90;;;;;;6219375;23;20008;-88
2023/03/18 04:29:05;;;;;;;0.00;0.00;;;11.20;99.90;;;;;;6219984;23;20375;-89
2023/03/18 04:31:31;;;;;;;0.03;0.03;;;11.10;99.90;;;;;;6218895;23;20012;-89
2023/03/18 04:33:58;;;;;;;0.00;0.00;;;11.10;99.90;;;;;;6220032;23;20004;-89
2023/03/18 04:36:24;;;;;;;0.10;0.10;;;11.10;99.90;;;;;;6218099;23;19997;-88
2023/03/18 04:38:50;;;;;;;0.00;0.00;;;11.10;99.90;;;;;;6248069;23;20004;-88
2023/03/18 04:41:15;;;;;;;0.00;0.00;;;11.10;99.90;;;;;;6219177;23;20011;-89
2023/03/18 04:43:42;;;;;;;0.10;0.10;;;11.10;99.90;;;;;;6218796;23;20026;-88
2023/03/18 04:46:08;;;;;;;0.00;0.00;;;11.00;99.90;;;;;;6217501;23;20404;-89
2023/03/18 04:48:34;;;;;;;0.00;0.00;;;;;;;;;;6219889;23;20083;-89
2023/03/18 04:51:01;;;;;;;0.00;0.00;;;10.90;99.90;;;;;;6218661;23;20012;-89
2023/03/18 04:53:27;;;;;;;0.10;0.10;;;;;;;;;;6217902;23;20451;-90
2023/03/18 04:55:53;;;;;;;0.00;0.00;;;;;;;;;;6246707;22;20079;-89
2023/03/18 04:58:18;;;;;;;0.10;0.10;;;;;;;;;;6219874;23;19996;-89
2023/03/18 05:00:44;;;;;;;0.00;0.00;;;;;;;;;;6218951;23;19996;-89
2023/03/18 05:03:11;;;;;;;0.00;0.00;;;;;;;;;;6219957;23;20012;-90
2023/03/18 05:05:37;;;;;;;0.00;0.00;;;;;;;;;;6246095;22;20039;-89
2023/03/18 05:08:03;;;;;;;0.00;0.00;;;;;;;;;;6219423;23;20440;-88
2023/03/18 05:10:28;;;;;;;0.00;0.00;;;10.90;99.90;;;;;;6218917;23;20015;-88
2023/03/18 05:12:54;;;;;;;0.00;0.00;;;13.20;99.90;;;;;;6219288;23;19996;-86
2023/03/18 05:15:20;;;;;;;0.00;0.00;;;11.00;99.90;;;;;;6245151;22;20058;-89
2023/03/18 05:17:46;;;;;;;0.00;0.00;;;11.10;99.90;;;;;;6218376;23;20032;-89
2023/03/18 05:20:12;;;;;;;0.00;0.00;;;11.00;99.90;;;;;;6244138;22;19996;-88
2023/03/18 05:22:38;;;;;;;0.00;0.00;;;11.00;99.90;;;;;;6218598;23;20444;-89
2023/03/18 05:25:05;;;;;;;0.00;0.00;;;11.00;99.90;;;;;;6219865;23;20011;-89
2023/03/18 05:27:31;;;;;;;0.00;0.00;;;;;;;;;;6242938;22;20008;-88
2023/03/18 05:29:57;;;;;;;0.00;0.00;;;11.00;99.90;;;;;;6218827;23;20031;-86
2023/03/18 05:32:23;;;;;;;0.00;0.00;;;11.00;99.90;;;;;;6218587;23;20004;-89
2023/03/18 05:34:49;;;;;;;0.00;0.00;;;11.00;99.90;;;;;;6219255;23;20004;-89
2023/03/18 05:37:15;;;;;;;0.10;0.10;;;;;;;;;;6218791;23;20011;-89
2023/03/18 05:39:42;;;;;;;0.10;0.10;;;;;;;;;;6219022;23;20000;-89
2023/03/18 05:42:08;;;;;;;0.00;0.00;;;;;;;;;;6219446;23;19996;-89
2023/03/18 05:44:34;;;;;;;0.00;0.00;;;11.20;99.90;;;;;;6219598;23;20019;-89
2023/03/18 05:47:00;;;;;;;0.03;0.03;;;11.30;99.90;;;;;;6216838;23;20107;-89
2023/03/18 05:49:26;;;;;;;0.10;0.10;;;11.30;99.90;;;;;;6218589;23;20011;-89
2023/03/18 05:51:52;;;;;;;0.00;0.00;;;11.30;99.90;;;;;;6217943;23;20004;-88
2023/03/18 05:54:18;;;;;;;0.10;0.10;;;11.10;99.90;;;;;;6240860;22;20079;-89
2023/03/18 05:56:46;;;;;;;0.00;0.00;;;11.20;99.90;;;;;;6217314;23;20336;-89
2023/03/18 05:59:14;;;;;;;0.00;0.00;;;11.20;99.90;;;;;;6218369;23;20040;-89
2023/03/18 06:01:40;;;;;;;0.10;0.10;;;11.30;99.90;;;;;;6245086;22;20341;-88
2023/03/18 06:04:07;;;;;;;0.00;0.00;;;11.20;99.90;;;;;;6246224;23;20000;-89
2023/03/18 06:06:34;;;;;;;0.00;0.00;;;11.30;99.90;;;;;;6244337;23;20437;-89
2023/03/18 06:09:00;;;;;;;0.00;0.00;;;;;;;;;;6245834;23;20004;-89
2023/03/18 06:11:28;;;;;;;0.00;0.00;;;;;;;;;;6216851;23;20115;-89
2023/03/18 06:13:54;;;;;;;0.00;0.00;;;;;;;;;;6217201;23;20023;-89
2023/03/18 06:16:21;;;;;;;0.10;0.10;;;;;;;;;;6216275;23;20043;-89
2023/03/18 06:18:47;;;;;;;0.00;0.00;;;;;;;;;;6219395;23;20593;-89
2023/03/18 06:21:14;;;;;;;0.10;0.10;;;;;;;;;;6242672;23;20004;-88
2023/03/18 06:23:40;;;;;;;0.00;0.00;;;;;;;;;;6214641;23;20004;-88
2023/03/18 06:26:07;;;;;;;0.00;0.00;;;;;;;;;;6216838;23;20015;-89
2023/03/18 06:28:33;;;;;;;0.00;0.00;;;11.60;99.90;;;;;;6218458;23;20016;-89
2023/03/18 06:31:00;;;;;;;0.00;0.00;;;11.60;99.90;;;;;;6216456;23;20012;-89
2023/03/18 06:33:26;;;;;;;0.00;0.00;;;;;;;;;;6218655;23;20004;-89
2023/03/18 06:35:53;;;;;;;0.00;0.00;;;11.60;99.90;;;;;;6217015;23;20053;-88
2023/03/18 06:38:20;;;;;;;0.00;0.00;;;;;;;;;;6218279;23;20004;-89
2023/03/18 06:40:46;;;;;;;0.00;0.00;;;11.80;99.90;;;;;;6214669;23;20004;-89
2023/03/18 06:43:12;;;;;;;0.00;0.00;;;;;;;;;;6218369;23;20011;-87
2023/03/18 06:45:39;;;;;;;0.00;0.00;;;11.90;99.90;;;;;;6216159;23;20027;-89
2023/03/18 06:48:05;;;;;;;0.00;0.00;;;12.00;99.90;;;;;;6216511;23;20396;-89
2023/03/18 06:50:31;;;;;;;0.00;0.00;;;11.90;99.90;;;;;;6245258;23;20054;-90
2023/03/18 06:52:58;;;;;;;0.00;0.00;;;11.90;99.90;;;;;;6217183;23;20046;-89
2023/03/18 06:55:25;;;;;;;0.00;0.00;;;11.90;99.90;;;;;;6214987;23;20086;-90
2023/03/18 06:57:51;;;;;;;0.00;0.00;;;;;;;;;;6217274;23;20389;-89
2023/03/18 07:00:18;;;;;;;0.10;0.10;;;12.00;99.90;;;;;;6214549;23;20011;-89
2023/03/18 07:02:44;;;;;;;0.00;0.00;;;;;;;;;;6216329;23;20010;-88
2023/03/18 07:05:11;;;;;;;0.00;0.00;;;;;;;;;;6216976;23;20008;-89
2023/03/18 07:07:38;;;;;;;0.00;0.00;;;;;;;;;;6244152;22;20026;-89
2023/03/18 07:10:09;;;;;;;0.00;0.00;;;12.10;99.90;;;;;;6244371;23;20011;-89
2023/03/18 07:12:34;;;;;;;0.00;0.00;;;12.10;99.90;;;;;;6217195;23;20012;-89
2023/03/18 07:15:01;;;;;;;0.08;0.08;;;12.20;99.90;;;;;;6215484;23;20510;-89
2023/03/18 07:17:26;;;;;;;0.00;0.00;;;12.20;99.90;;;;;;6216938;23;20389;-90
2023/03/18 07:19:52;;;;;;;0.00;0.00;;;12.20;99.90;;;;;;6243728;22;20047;-89
2023/03/18 07:22:17;;;;;;;0.00;0.00;;;12.30;99.90;;;;;;6217745;23;20027;-89
2023/03/18 07:24:44;;;;;;;0.00;0.00;;;12.30;99.90;;;;;;6218151;23;20011;-89
2023/03/18 07:27:12;;;;;;;0.00;0.00;;;12.40;99.90;;;;;;6218636;23;20004;-89
2023/03/18 07:29:37;;;;;;;0.00;0.00;;;12.40;99.90;;;;;;6217704;23;20016;-89
2023/03/18 07:32:03;;;;;;;0.00;0.00;;;12.50;99.90;;;;;;6246120;23;20000;-89
2023/03/18 07:34:28;;;;;;;0.00;0.00;;;12.50;99.90;;;;;;6243119;22;20009;-91
2023/03/18 07:36:54;;;;;;;0.10;0.10;;;12.60;99.90;;;;;;6218538;23;20000;-89
2023/03/18 07:39:20;;;;;;;0.00;0.00;;;12.70;99.90;;;;;;6218601;23;20011;-89
2023/03/18 07:41:45;;;;;;;0.00;0.00;;;12.70;99.90;;;;;;6218930;23;20000;-89
2023/03/18 07:44:10;;;;;;;0.00;0.00;;;13.20;99.90;;;;;;6218622;22;20091;-89
2023/03/18 07:46:36;;;;;;;0.00;0.00;;;13.10;99.90;;;;;;6216800;23;20004;-89
2023/03/18 07:49:02;;;;;;;0.00;0.00;;;;;;;;;;6219617;23;20012;-91
2023/03/18 07:51:28;;;;;;;0.00;0.00;;;13.30;99.90;;;;;;6245559;23;20000;-90
2023/03/18 07:53:54;;;;;;;0.00;0.00;;;13.30;99.90;;;;;;6220560;23;20007;-90
2023/03/18 07:56:20;;;;;;;0.00;0.00;;;;;;;;;;6217853;23;20011;-91
2023/03/18 07:58:46;;;;;;;0.00;0.00;;;;;;;;;;6217188;23;19997;-90
2023/03/18 08:01:14;;;;;;;0.00;0.00;;;13.50;99.90;;;;;;6217552;23;20023;-89
2023/03/18 08:03:40;;;;;;;0.00;0.00;;;13.60;99.90;;;;;;6218683;23;20015;-90
2023/03/18 08:06:06;;;;;;;0.00;0.00;;;13.30;99.90;;;;;;6218866;23;20396;-91
2023/03/18 08:08:33;;;;;;;0.00;0.00;;;;;;;;;;6219794;23;20298;-90
2023/03/18 08:10:59;;;;;;;0.00;0.00;;;13.60;99.90;;;;;;6220312;23;20018;-91
2023/03/18 08:13:25;;;;;;;0.00;0.00;;;;;;;;;;6218446;23;20004;-89
2023/03/18 08:15:51;;;;;;;0.00;0.00;;;13.70;99.90;;;;;;6215970;23;20019;-90
2023/03/18 08:18:18;;;;;;;0.00;0.00;;;;;;;;;;6218915;23;20004;-89
2023/03/18 08:20:44;;;;;;;0.00;0.00;;;;;;;;;;6218572;23;20012;-90
2023/03/18 08:23:10;;;;;;;0.00;0.00;;;13.90;99.90;;;;;;6218153;23;20008;-90
2023/03/18 08:25:36;;;;;;;0.00;0.00;;;;;;;;;;6219742;23;20492;-90
2023/03/18 08:28:02;;;;;;;0.00;0.00;;;;;;;;;;6219729;23;20016;-91
2023/03/18 08:30:29;;;;;;;0.00;0.00;;;;;;;;;;6218232;23;20448;-90
2023/03/18 08:32:56;;;;;;;0.00;0.00;;;14.00;99.90;;;;;;6218595;23;20459;-91
2023/03/18 08:35:22;;;;;;;0.00;0.00;;;14.10;99.90;;;;;;6218398;23;20012;-90
2023/03/18 08:37:49;;;;;;;0.00;0.00;;;;;;;;;;6217611;23;20460;-91
2023/03/18 08:40:16;;;;;;;0.00;0.00;;;;;;;;;;6220159;23;20003;-88
2023/03/18 08:42:42;;;;;;;0.00;0.00;;;;;;;;;;6220593;23;20004;-90
2023/03/18 08:45:09;;;;;;;0.00;0.00;;;14.60;99.90;;;;;;6218401;23;20019;-90
2023/03/18 08:47:35;;;;;;;0.00;0.00;;;14.80;99.90;;;;;;6218423;23;20453;-89
2023/03/18 08:50:01;;;;;;;0.00;0.00;;;;;;;;;;6218504;23;20035;-89
2023/03/18 08:52:27;;;;;;;0.00;0.00;;;;;;;;;;6218945;23;20008;-90
2023/03/18 08:54:53;;;;;;;0.00;0.00;;;;;;;;;;6218123;23;20078;-90
2023/03/18 08:57:19;;;;;;;0.00;0.00;;;;;;;;;;6217382;23;20014;-90
2023/03/18 08:59:45;;;;;;;0.00;0.00;;;;;;;;;;6216761;23;20174;-90
2023/03/18 09:02:15;;;;;;;0.00;0.00;;;15.10;99.90;;;;;;6217897;23;20035;-90
2023/03/18 09:04:41;;;;;;;0.00;0.00;;;;;;;;;;6212518;23;20066;-90
2023/03/18 09:07:07;;;;;;;0.00;0.00;;;15.00;99.90;;;;;;6214734;23;20008;-89
2023/03/18 09:09:33;;;;;;;0.00;0.00;;;;;;;;;;6215305;23;20004;-90
2023/03/18 09:11:58;;;;;;;0.00;0.00;;;15.00;99.90;;;;;;6215990;23;20011;-90
2023/03/18 09:14:25;;;;;;;0.00;0.00;;;14.90;99.90;;;;;;6214186;22;20456;-89
2023/03/18 09:16:50;;;;;;;0.00;0.00;;;14.90;99.90;;;;;;6219066;23;20447;-90
2023/03/18 09:19:16;;;;;;;0.00;0.00;;;;;;;;;;6218370;23;20143;-89
2023/03/18 09:21:43;;;;;;;0.00;0.00;;;;;;;;;;6218190;23;20026;-90
2023/03/18 09:24:09;;;;;;;0.00;0.00;;;;;;;;;;6219339;22;20000;-91
2023/03/18 09:26:35;;;;;;;0.00;0.00;;;;;;;;;;6218612;23;20047;-90
2023/03/18 09:29:00;;;;;;;0.00;0.00;;;14.80;99.90;;;;;;6215417;23;20019;-89
2023/03/18 09:31:26;;;;;;;0.00;0.00;;;;;;;;;;6242545;23;20066;-89
2023/03/18 09:33:52;;;;;;;0.00;0.00;;;14.90;99.90;;;;;;6244157;22;20042;-90
2023/03/18 09:36:18;;;;;;;0.00;0.00;;;;;;;;;;6215808;23;20038;-89
2023/03/18 09:38:44;;;;;;;0.00;0.00;;;;;;;;;;6213802;23;20073;-87
2023/03/18 09:41:09;;;;;;;0.00;0.00;;;14.70;99.90;;;;;;6216638;23;20038;-90
2023/03/18 09:43:35;;;;;;;0.00;0.00;;;;;;;;;;6217289;23;20008;-89
2023/03/18 09:46:23;;;;;;;0.00;0.00;;;14.80;99.90;;;;;;6216726;23;20011;-88
2023/03/18 09:49:13;;;;;;;0.00;0.00;;;15.00;99.90;;;;;;6217665;23;20016;-89
2023/03/18 09:52:08;;;;;;;0.00;0.00;;;15.00;99.90;;;;;;6218123;23;20004;-88
2023/03/18 09:54:44;;;;;;;0.00;0.00;;;15.10;99.90;;;;;;6239796;22;20000;-89
2023/03/18 09:57:18;;;;;;;0.00;0.00;;;15.30;99.90;;;;;;6240789;23;20023;-88
2023/03/18 09:59:49;;;;;;;0.00;0.00;;;15.40;99.90;;;;;;6244604;23;20060;-88
2023/03/18 10:02:35;;;;;;;0.00;0.00;;;15.50;99.90;;;;;;6216216;23;20492;-87
2023/03/18 10:05:06;;;;;;;0.00;0.00;;;15.60;99.90;;;;;;6216322;23;20012;-89
2023/03/18 10:07:37;;;;;;;0.00;0.00;;;15.70;99.90;;;;;;6217184;23;20083;-89
2023/03/18 10:10:10;;;;;;;0.00;0.00;;;15.80;99.90;;;;;;6218664;23;20050;-88
2023/03/18 10:12:41;;;;;;;0.00;0.00;;;15.90;99.90;;;;;;6218102;23;20011;-89
2023/03/18 10:15:45;;;;;;;0.00;0.00;;;15.90;99.90;;;;;;6215845;23;20011;-88
2023/03/18 10:18:31;;;;;;;0.00;0.00;;;15.80;99.90;;;;;;6096334;23;20184;-88
2023/03/18 10:21:19;;;;;;;0.00;0.00;;;15.90;99.90;;;;;;6236003;23;20079;-89
2023/03/18 10:24:19;;;;;;;0.00;0.00;;;15.90;99.90;;;;;;6218919;23;20091;-90
2023/03/18 10:26:47;;;;;;;;;;;16.00;99.90;;;;;;6218579;23;20004;-89
2023/03/18 10:29:26;;;;;;;0.00;0.00;;;16.10;99.90;;;;;;6219094;23;19907;-89
2023/03/18 10:32:03;;;;;;;0.00;0.00;;;16.00;99.90;;;;;;6215405;23;20186;-90
2023/03/18 10:34:51;;;;;;;0.00;0.00;;;15.80;99.90;;;;;;6214924;22;20046;-90
2023/03/18 10:37:40;;;;;;;0.00;0.00;;;15.80;99.90;;;;;;6217590;23;19996;-88
2023/03/18 10:40:15;;;;;;;0.00;0.00;;;15.80;99.90;;;;;;6217527;23;20000;-89
2023/03/18 10:42:41;;;;;;;0.00;0.00;;;16.00;99.90;;;;;;6217709;23;20050;-89
2023/03/18 10:45:22;;;;;;;0.00;0.00;;;16.00;99.90;;;;;;6241508;22;20000;-90
2023/03/18 10:48:24;;;;;;;0.00;0.00;;;15.90;99.90;;;;;;6215051;23;20066;-91
2023/03/18 10:51:30;;;;;;;0.00;0.00;;;16.00;99.90;;;;;;6212526;23;20121;-89
2023/03/18 10:54:10;;;;;;;0.00;0.00;;;15.80;99.90;;;;;;6196301;23;20004;-90
2023/03/18 10:56:36;;;;;;;0.00;0.00;;;15.70;99.90;;;;;;6215273;23;20043;-89
2023/03/18 11:02:44;;;;;;;0.00;0.00;;;15.50;99.90;;;;;;6232792;22;20027;-92
2023/03/18 11:05:38;;;;;;;0.00;0.00;;;15.50;99.90;;;;;;6220409;23;19996;-92
2023/03/18 11:08:07;;;;;;;0.00;0.00;;;15.50;99.90;;;;;;6220183;23;20004;-90
2023/03/18 11:10:44;;;;;;;0.00;0.00;;;15.50;99.90;;;;;;6219478;23;20000;-91
2023/03/18 11:13:16;;;;;;;0.00;0.00;;;15.70;99.90;;;;;;6221765;23;20079;-90
2023/03/18 11:15:48;;;;;;;0.00;0.00;;;15.90;99.90;;;;;;6218112;23;20433;-91
2023/03/18 11:18:19;;;;;;;0.00;0.00;;;16.00;99.90;;;;;;6217602;23;20019;-91
2023/03/18 11:20:46;;;;;;;0.00;0.00;;;;;;;;;;6217761;23;20000;-91
2023/03/18 11:23:19;;;;;;;0.00;0.00;;;16.10;99.90;;;;;;6218899;23;20001;-90
2023/03/18 11:25:46;;;;;;;0.00;0.00;;;16.20;99.90;;;;;;6215808;23;20074;-89
2023/03/18 11:28:21;;;;;;;0.00;0.00;;;16.20;99.90;;;;;;6216803;23;20015;-91
2023/03/18 11:30:55;;;;;;;0.00;0.00;;;16.10;99.90;;;;;;6219509;23;20015;-92
2023/03/18 11:33:25;;;;;;;0.00;0.00;;;16.10;99.90;;;;;;6218554;23;20004;-91
2023/03/18 11:35:53;;;;;;;0.00;0.00;;;15.90;99.90;;;;;;6216391;23;20300;-91
2023/03/18 11:38:27;;;;;;;0.00;0.00;;;15.70;99.90;;;;;;6212999;23;20135;-91
2023/03/18 11:41:07;;;;;;;0.00;0.00;;;16.20;99.90;;;;;;6219960;23;20016;-91
2023/03/18 11:43:33;;;;;;;;;;;16.10;99.90;;;;;;6219803;23;20138;-91
2023/03/18 11:46:03;;;;;;;0.00;0.00;;;16.10;99.90;;;;;;6217269;23;20030;-91
2023/03/18 11:48:37;;;;;;;0.00;0.00;;;16.00;99.90;;;;;;6218900;23;20004;-91
2023/03/18 11:51:32;;;;;;;0.00;0.00;;;16.00;99.90;;;;;;6219773;23;20014;-92
2023/03/18 11:54:46;;;;;;;0.00;0.00;;;16.00;99.90;;;;;;6218383;23;20011;-92
2023/03/18 11:57:35;;;;;;;0.00;0.00;;;16.20;99.90;;;;;;6123789;23;20006;-90
2023/03/18 12:00:20;;;;;;;0.00;0.00;;;16.20;99.90;;;;;;6214370;23;20008;-91
2023/03/18 12:03:18;;;;;;;0.00;0.00;;;16.20;99.90;;;;;;6219979;23;20000;-93
2023/03/18 12:06:08;;;;;;;0.00;0.00;;;16.30;99.90;;;;;;6216677;23;20000;-90
2023/03/18 12:08:53;;;;;;;;;;;16.30;99.90;;;;;;6219844;23;20005;-89
2023/03/18 12:11:19;;;;;;;0.00;0.00;;;;;;;;;;6221273;23;19976;-92
2023/03/18 12:14:16;;;;;;;0.00;0.00;;;16.60;99.90;;;;;;6220156;23;20087;-91
2023/03/18 12:17:06;;;;;;;0.00;0.00;;;16.70;99.90;;;;;;6220758;23;20001;-92
2023/03/18 12:19:47;;;;;;;0.00;0.00;;;16.70;99.90;;;;;;6220227;23;20011;-92
2023/03/18 12:22:37;;;;;;;0.00;0.00;;;16.70;99.90;;;;;;6217353;23;20057;-91
2023/03/18 12:25:31;;;;;;;0.00;0.00;;;16.50;99.90;;;;;;6223315;23;20008;-92
2023/03/18 12:28:05;;;;;;;0.00;0.00;;;16.60;99.90;;;;;;6223583;23;20356;-92
2023/03/18 12:31:08;;;;;;;0.00;0.00;;;16.70;99.90;;;;;;6224050;23;20223;-93
2023/03/18 12:33:55;;;;;;;0.00;0.00;;;16.80;99.90;;;;;;6224940;23;20008;-92
2023/03/18 12:36:48;;;;;;;0.00;0.00;;;16.80;99.90;;;;;;6226576;23;20011;-92
2023/03/18 12:39:20;;;;;;;0.00;0.00;;;16.80;99.90;;;;;;6227625;23;20000;-93
2023/03/18 12:42:02;;;;;;;0.00;0.00;;;16.70;99.90;;;;;;6227147;23;20001;-92
2023/03/18 12:44:48;;;;;;;0.00;0.00;;;16.70;99.90;;;;;;6226296;22;20004;-92
2023/03/18 12:47:30;;;;;;;0.00;0.00;;;16.70;99.90;;;;;;6226434;23;20024;-93
2023/03/18 12:50:19;;;;;;;0.00;0.00;;;16.80;99.90;;;;;;6228906;23;20027;-93
2023/03/18 12:53:11;;;;;;;0.00;0.00;;;17.00;99.90;;;;;;6240413;23;20007;-92
2023/03/18 12:55:44;;;;;;;0.00;0.00;;;17.20;99.90;;;;;;6242033;23;20439;-93
2023/03/18 12:58:15;;;;;;;0.00;0.00;;;17.20;99.90;;;;;;6235382;23;20000;-92
2023/03/18 13:00:51;;;;;;;0.00;0.00;;;17.30;99.90;;;;;;6226965;23;20008;-91
2023/03/18 13:03:34;;;;;;;0.00;0.00;;;17.30;99.90;;;;;;6231916;23;20004;-93
2023/03/18 13:06:28;;;;;;;0.00;0.00;;;17.00;99.50;;;;;;6232468;23;20004;-90
2023/03/18 13:09:01;;;;;;;0.00;0.00;;;17.50;99.80;;;;;;6218739;23;20091;-93
2023/03/18 13:11:44;;;;;;;0.00;0.00;;;17.40;99.90;;;;;;6222606;23;20014;-93
2023/03/18 13:14:47;;;;;;;0.00;0.00;;;17.40;99.10;;;;;;6224156;22;20011;-93
2023/03/18 13:17:19;;;;;;;0.00;0.00;;;17.40;99.30;;;;;;6227755;23;20011;-90
2023/03/18 13:19:45;;;;;;;0.00;0.00;;;;;;;;;;6223315;23;20067;-91
2023/03/18 13:22:34;;;;;;;0.00;0.00;;;17.50;99.20;;;;;;6224027;23;20015;-92
2023/03/18 13:25:26;;;;;;;0.00;0.00;;;17.50;99.20;;;;;;6234445;22;20012;-92
2023/03/18 13:28:13;;;;;;;0.00;0.00;;;17.40;99.90;;;;;;6222937;23;20007;-92
2023/03/18 13:31:06;;;;;;;0.00;0.00;;;17.40;99.90;;;;;;6224665;23;20042;-94
2023/03/18 13:34:07;;;;;;;0.00;0.00;;;17.40;99.90;;;;;;6228074;23;20018;-92
2023/03/18 13:37:12;;;;;;;0.00;0.00;;;17.50;98.70;;;;;;6228573;23;20384;-93
2023/03/18 13:39:50;;;;;;;0.00;0.00;;;17.60;96.90;;;;;;6225505;23;20741;-93